Map

Track Data

SID SEASON NUMBER BASIN SUBBASIN NAME ISO_TIME NATURE LAT LON WMO_WIND WMO_PRES WMO_AGENCY TRACK_TYPE DIST2LAND LANDFALL IFLAG USA_AGENCY USA_ATCF_ID USA_LAT USA_LON USA_RECORD USA_STATUS USA_WIND USA_PRES USA_SSHS USA_R34_NE USA_R34_SE USA_R34_SW USA_R34_NW USA_R50_NE USA_R50_SE USA_R50_SW USA_R50_NW USA_R64_NE USA_R64_SE USA_R64_SW USA_R64_NW USA_POCI USA_ROCI USA_RMW USA_EYE TOKYO_LAT TOKYO_LON TOKYO_GRADE TOKYO_WIND TOKYO_PRES TOKYO_R50_DIR TOKYO_R50_LONG TOKYO_R50_SHORT TOKYO_R30_DIR TOKYO_R30_LONG TOKYO_R30_SHORT TOKYO_LAND CMA_LAT CMA_LON CMA_CAT CMA_WIND CMA_PRES HKO_LAT HKO_LON HKO_CAT HKO_WIND HKO_PRES NEWDELHI_LAT NEWDELHI_LON NEWDELHI_GRADE NEWDELHI_WIND NEWDELHI_PRES NEWDELHI_CI NEWDELHI_DP NEWDELHI_POCI REUNION_LAT REUNION_LON REUNION_TYPE REUNION_WIND REUNION_PRES REUNION_TNUM REUNION_CI REUNION_RMW REUNION_R34_NE REUNION_R34_SE REUNION_R34_SW REUNION_R34_NW REUNION_R50_NE REUNION_R50_SE REUNION_R50_SW REUNION_R50_NW REUNION_R64_NE REUNION_R64_SE REUNION_R64_SW REUNION_R64_NW BOM_LAT BOM_LON BOM_TYPE BOM_WIND BOM_PRES BOM_TNUM BOM_CI BOM_RMW BOM_R34_NE BOM_R34_SE BOM_R34_SW BOM_R34_NW BOM_R50_NE BOM_R50_SE BOM_R50_SW BOM_R50_NW BOM_R64_NE BOM_R64_SE BOM_R64_SW BOM_R64_NW BOM_ROCI BOM_POCI BOM_EYE BOM_POS_METHOD BOM_PRES_METHOD NADI_LAT NADI_LON NADI_CAT NADI_WIND NADI_PRES WELLINGTON_LAT WELLINGTON_LON WELLINGTON_WIND WELLINGTON_PRES DS824_LAT DS824_LON DS824_STAGE DS824_WIND DS824_PRES TD9636_LAT TD9636_LON TD9636_STAGE TD9636_WIND TD9636_PRES TD9635_LAT TD9635_LON TD9635_WIND TD9635_PRES TD9635_ROCI NEUMANN_LAT NEUMANN_LON NEUMANN_CLASS NEUMANN_WIND NEUMANN_PRES MLC_LAT MLC_LON MLC_CLASS MLC_WIND MLC_PRES USA_GUST BOM_GUST BOM_GUST_PER REUNION_GUST REUNION_GUST_PER USA_SEAHGT USA_SEARAD_NE USA_SEARAD_SE USA_SEARAD_SW USA_SEARAD_NW STORM_SPEED STORM_DIR
1953327N10091 1953 77 NI BB NOT_NAMED 1953-11-22 18:00:00 TS 10.4000 91.1000 main 702 702 O________O____ jtwc_io IO091953 10.4000 91.1000 -1 10.4000 91.1000 TC 17 270
1953327N10091 1953 77 NI BB NOT_NAMED 1953-11-22 21:00:00 TS 10.4006 90.2475 main 756 756 P________P____ IO091953 10.4006 90.2475 -1 10.4006 90.2475 TC 16 270
1953327N10091 1953 77 NI BB NOT_NAMED 1953-11-23 00:00:00 TS 10.4000 89.5000 main 804 804 O________O____ jtwc_io IO091953 10.4000 89.5000 -1 10.4000 89.5000 TC 25 13 270
1953327N10091 1953 77 NI BB NOT_NAMED 1953-11-23 03:00:00 TS 10.3998 88.9289 main 841 800 P________PO___ IO091953 10.3998 88.9325 -1 10.3998 88.9325 TC 25 10.4000 88.9000 1 10 270
1953327N10091 1953 77 NI BB NOT_NAMED 1953-11-23 06:00:00 TS 10.4001 88.5013 main 800 760 O________OP___ jtwc_io IO091953 10.4000 88.5000 -1 10.4000 88.5000 TC 25 10.4006 88.5063 1 8 270
1953327N10091 1953 77 NI BB NOT_NAMED 1953-11-23 09:00:00 TS 10.4002 88.1173 main 760 730 P________PP___ IO091953 10.3999 88.1125 -1 10.3999 88.1125 TC 25 10.4008 88.1300 1 7 270
1953327N10091 1953 77 NI BB NOT_NAMED 1953-11-23 12:00:00 TS 10.4002 87.7963 main 730 700 O________OP___ jtwc_io IO091953 10.4000 87.8000 -1 10.4000 87.8000 TC 25 10.4005 87.7888 1 6 270
1953327N10091 1953 77 NI BB NOT_NAMED 1953-11-23 15:00:00 TS 10.4000 87.5183 main 700 681 P________PO___ IO091953 10.4000 87.5275 -1 10.4000 87.5275 TC 25 10.4000 87.5000 1 5 270
1953327N10091 1953 77 NI BB NOT_NAMED 1953-11-23 18:00:00 TS 10.3998 87.2900 main 681 661 O________OP___ jtwc_io IO091953 10.4000 87.3000 -1 10.4000 87.3000 TC 25 10.3995 87.2700 1 4 270
1953327N10091 1953 77 NI BB NOT_NAMED 1953-11-23 21:00:00 TS 10.3996 87.1067 main 661 641 P________PP___ IO091953 10.3999 87.1300 -1 10.3999 87.1300 TC 25 10.3992 87.0599 1 4 270
1953327N10091 1953 77 NI BB NOT_NAMED 1953-11-24 00:00:00 TS 10.3998 86.8733 main 641 601 O________OP___ jtwc_io IO091953 10.4000 86.9000 -1 10.4000 86.9000 TC 25 10.3993 86.8200 1 6 270
1953327N10091 1953 77 NI BB NOT_NAMED 1953-11-24 03:00:00 TS 10.4000 86.5017 main 601 552 P________PO___ IO091953 10.4000 86.5025 -1 10.4000 86.5025 TC 25 10.4000 86.5000 1 9 270
1953327N10091 1953 77 NI BB NOT_NAMED 1953-11-24 06:00:00 TS 10.4001 86.0094 main 552 502 O________OP___ jtwc_io IO091953 10.4000 86.0000 -1 10.4000 86.0000 TC 25 10.4004 86.0281 1 10 270
1953327N10091 1953 77 NI BB NOT_NAMED 1953-11-24 09:00:00 TS 10.4001 85.4733 main 502 444 P________PP___ IO091953 10.3999 85.4725 -1 10.3999 85.4725 TC 25 10.4005 85.4749 1 11 270
1953327N10091 1953 77 NI BB NOT_NAMED 1953-11-24 12:00:00 TS 10.4001 84.8948 main 444 389 O________OP___ jtwc_io IO091953 10.4000 84.9000 -1 10.4000 84.9000 TC 25 10.4003 84.8843 1 12 270
1953327N10091 1953 77 NI BB NOT_NAMED 1953-11-24 15:00:00 TS 10.4000 84.2950 main 389 333 P________PO___ IO091953 10.4000 84.2925 -1 10.4000 84.2925 TC 25 10.4000 84.3000 1 12 270
1953327N10091 1953 77 NI BB NOT_NAMED 1953-11-24 18:00:00 TS 10.4014 83.7164 main 333 290 O________OP___ jtwc_io IO091953 10.4000 83.7000 -1 10.4000 83.7000 TC 25 10.4041 83.7492 1 11 270
1953327N10091 1953 77 NI BB NOT_NAMED 1953-11-24 21:00:00 TS 10.4025 83.1809 main 290 242 P________PP___ IO091953 10.3999 83.1625 -1 10.3999 83.1625 TC 25 10.4076 83.2176 1 10 270
1953327N10091 1953 77 NI BB NOT_NAMED 1953-11-25 00:00:00 TS 10.4024 82.7091 main 242 205 O________OP___ jtwc_io IO091953 10.4000 82.7000 -1 10.4000 82.7000 TC 25 10.4073 82.7273 1 9 270
1953327N10091 1953 77 NI BB NOT_NAMED 1953-11-25 03:00:00 TS 10.4049 82.3083 main 205 180 P________PO___ IO091953 10.4074 82.3125 -1 10.4074 82.3125 TC 25 10.4000 82.3000 1 7 269
1953327N10091 1953 77 NI BB NOT_NAMED 1953-11-25 06:00:00 TS 10.3939 81.9868 main 180 157 O________OP___ jtwc_io IO091953 10.4000 82.0000 -1 10.4000 82.0000 TC 25 10.3817 81.9603 1 6 265
1953327N10091 1953 77 NI BB NOT_NAMED 1953-11-25 09:00:00 TS 10.3523 81.7225 main 157 135 P________PP___ IO091953 10.3499 81.7425 -1 10.3499 81.7425 TC 25 10.3570 81.6825 1 5 260
1953327N10091 1953 77 NI BB NOT_NAMED 1953-11-25 12:00:00 TS 10.3096 81.4795 main 135 117 O________OP___ jtwc_io IO091953 10.3000 81.5000 -1 10.3000 81.5000 TC 25 10.3287 81.4385 1 5 264
1953327N10091 1953 77 NI BB NOT_NAMED 1953-11-25 15:00:00 TS 10.3000 81.2000 main 117 94 P________PO___ IO091953 10.3000 81.2000 -1 10.3000 81.2000 TC 25 10.3000 81.2000 1 6 268
1953327N10091 1953 77 NI BB NOT_NAMED 1953-11-25 18:00:00 TS 10.2892 80.9179 main 94 80 O________OP___ jtwc_io IO091953 10.3000 80.9000 -1 10.3000 80.9000 TC 25 10.2731 80.9447 1 5 265
1953327N10091 1953 77 NI BB NOT_NAMED 1953-11-25 21:00:00 TS 10.2563 80.6525 main 80 55 P________PP___ IO091953 10.2625 80.6375 -1 10.2625 80.6375 TC 25 10.2479 80.6724 1 5 261
1953327N10091 1953 77 NI BB NOT_NAMED 1953-11-26 00:00:00 TS 10.2119 80.3945 main 55 24 O________OP___ jtwc_io IO091953 10.2000 80.4000 -1 10.2000 80.4000 TC 25 10.2238 80.3890 1 5 264
1953327N10091 1953 77 NI BB NOT_NAMED 1953-11-26 03:00:00 NR 10.2000 80.1000 main 24 __________O___ IO091953 -1 TC 10.2000 80.1000 1 6 268

About IBTrACS Database

This database is a web-friendly format of International Best Track Archive for Climate Stewardship (IBTrACS), a global best track data archive curated by NOAA dating back to 1842.

Updated: 2021-10-21